sensor_id;sensor_type;location;lat;lon;timestamp;temperature;humidity
23411;DHT22;11878;51.774;7.220;2022-09-25T00:02:15;13.10;99.90
23411;DHT22;11878;51.774;7.220;2022-09-25T00:05:17;13.10;99.90
23411;DHT22;11878;51.774;7.220;2022-09-25T00:08:19;13.10;99.90
23411;DHT22;11878;51.774;7.220;2022-09-25T00:11:25;13.10;99.90
23411;DHT22;11878;51.774;7.220;2022-09-25T00:14:28;13.10;99.90
23411;DHT22;11878;51.774;7.220;2022-09-25T00:17:29;13.10;99.90
23411;DHT22;11878;51.774;7.220;2022-09-25T00:20:31;13.10;99.90
23411;DHT22;11878;51.774;7.220;2022-09-25T00:23:33;13.00;99.90
23411;DHT22;11878;51.774;7.220;2022-09-25T00:26:37;13.00;99.90
23411;DHT22;11878;51.774;7.220;2022-09-25T00:29:40;12.90;99.90
23411;DHT22;11878;51.774;7.220;2022-09-25T00:32:42;13.00;99.90
23411;DHT22;11878;51.774;7.220;2022-09-25T00:35:44;13.00;99.90
23411;DHT22;11878;51.774;7.220;2022-09-25T00:38:45;12.90;99.90
23411;DHT22;11878;51.774;7.220;2022-09-25T00:41:49;12.90;99.90
23411;DHT22;11878;51.774;7.220;2022-09-25T00:44:55;12.90;99.90
23411;DHT22;11878;51.774;7.220;2022-09-25T00:48:02;12.90;99.90
23411;DHT22;11878;51.774;7.220;2022-09-25T00:51:05;12.90;99.90
23411;DHT22;11878;51.774;7.220;2022-09-25T00:54:13;12.90;99.90
23411;DHT22;11878;51.774;7.220;2022-09-25T00:57:20;12.90;99.90
23411;DHT22;11878;51.774;7.220;2022-09-25T01:00:22;12.90;99.90
23411;DHT22;11878;51.774;7.220;2022-09-25T01:03:24;12.90;99.90
23411;DHT22;11878;51.774;7.220;2022-09-25T01:06:27;12.90;99.90
23411;DHT22;11878;51.774;7.220;2022-09-25T01:09:30;12.90;99.90
23411;DHT22;11878;51.774;7.220;2022-09-25T01:12:31;12.90;99.90
23411;DHT22;11878;51.774;7.220;2022-09-25T01:15:50;12.90;99.90
23411;DHT22;11878;51.774;7.220;2022-09-25T01:29:38;12.80;99.90
23411;DHT22;11878;51.774;7.220;2022-09-25T01:36:08;12.80;99.90
23411;DHT22;11878;51.774;7.220;2022-09-25T01:39:27;12.80;99.90
23411;DHT22;11878;51.774;7.220;2022-09-25T01:42:42;12.80;99.90
23411;DHT22;11878;51.774;7.220;2022-09-25T01:45:58;12.70;99.90
23411;DHT22;11878;51.774;7.220;2022-09-25T01:49:08;12.70;99.90
23411;DHT22;11878;51.774;7.220;2022-09-25T01:52:22;12.70;99.90
23411;DHT22;11878;51.774;7.220;2022-09-25T01:55:43;12.70;99.90
23411;DHT22;11878;51.774;7.220;2022-09-25T01:58:52;12.70;99.90
23411;DHT22;11878;51.774;7.220;2022-09-25T02:01:55;12.70;99.90
23411;DHT22;11878;51.774;7.220;2022-09-25T02:05:18;12.60;99.90
23411;DHT22;11878;51.774;7.220;2022-09-25T02:08:33;12.60;99.90
23411;DHT22;11878;51.774;7.220;2022-09-25T02:11:42;12.60;99.90
23411;DHT22;11878;51.774;7.220;2022-09-25T02:14:50;12.60;99.90
23411;DHT22;11878;51.774;7.220;2022-09-25T02:17:57;12.60;99.90
23411;DHT22;11878;51.774;7.220;2022-09-25T02:28:00;12.60;99.90
23411;DHT22;11878;51.774;7.220;2022-09-25T02:31:07;12.60;99.90
23411;DHT22;11878;51.774;7.220;2022-09-25T02:34:10;12.60;99.90
23411;DHT22;11878;51.774;7.220;2022-09-25T02:37:17;12.60;99.90
23411;DHT22;11878;51.774;7.220;2022-09-25T02:40:22;12.60;99.90
23411;DHT22;11878;51.774;7.220;2022-09-25T02:43:43;12.60;99.90
23411;DHT22;11878;51.774;7.220;2022-09-25T02:53:54;12.50;99.90
23411;DHT22;11878;51.774;7.220;2022-09-25T03:00:06;12.50;99.90
23411;DHT22;11878;51.774;7.220;2022-09-25T03:03:11;12.50;99.90
23411;DHT22;11878;51.774;7.220;2022-09-25T03:06:14;12.40;99.90
23411;DHT22;11878;51.774;7.220;2022-09-25T03:09:18;12.40;99.90
23411;DHT22;11878;51.774;7.220;2022-09-25T03:12:21;12.40;99.90
23411;DHT22;11878;51.774;7.220;2022-09-25T03:15:23;12.40;99.90
23411;DHT22;11878;51.774;7.220;2022-09-25T03:18:25;12.40;99.90
23411;DHT22;11878;51.774;7.220;2022-09-25T03:21:28;12.40;99.90
23411;DHT22;11878;51.774;7.220;2022-09-25T03:24:30;12.40;99.90
23411;DHT22;11878;51.774;7.220;2022-09-25T03:27:31;12.40;99.90
23411;DHT22;11878;51.774;7.220;2022-09-25T03:30:33;12.40;99.90
23411;DHT22;11878;51.774;7.220;2022-09-25T03:33:40;12.40;99.90
23411;DHT22;11878;51.774;7.220;2022-09-25T03:36:42;12.40;99.90
23411;DHT22;11878;51.774;7.220;2022-09-25T03:39:47;12.40;99.90
23411;DHT22;11878;51.774;7.220;2022-09-25T03:42:49;12.30;99.90
23411;DHT22;11878;51.774;7.220;2022-09-25T03:45:51;12.40;99.90
23411;DHT22;11878;51.774;7.220;2022-09-25T03:48:54;12.30;99.90
23411;DHT22;11878;51.774;7.220;2022-09-25T03:51:57;12.30;99.90
23411;DHT22;11878;51.774;7.220;2022-09-25T03:55:01;12.30;99.90
23411;DHT22;11878;51.774;7.220;2022-09-25T03:58:02;12.30;99.90
23411;DHT22;11878;51.774;7.220;2022-09-25T04:01:05;12.20;99.90
23411;DHT22;11878;51.774;7.220;2022-09-25T04:04:06;12.20;99.90
23411;DHT22;11878;51.774;7.220;2022-09-25T04:07:08;12.20;99.90
23411;DHT22;11878;51.774;7.220;2022-09-25T04:10:10;12.10;99.90
23411;DHT22;11878;51.774;7.220;2022-09-25T04:13:12;12.20;99.90
23411;DHT22;11878;51.774;7.220;2022-09-25T04:16:15;12.20;99.90
23411;DHT22;11878;51.774;7.220;2022-09-25T04:19:17;12.20;99.90
23411;DHT22;11878;51.774;7.220;2022-09-25T04:22:18;12.10;99.90
23411;DHT22;11878;51.774;7.220;2022-09-25T04:25:20;12.10;99.90
23411;DHT22;11878;51.774;7.220;2022-09-25T04:28:26;12.10;99.90
23411;DHT22;11878;51.774;7.220;2022-09-25T04:31:29;12.10;99.90
23411;DHT22;11878;51.774;7.220;2022-09-25T04:34:31;12.00;99.90
23411;DHT22;11878;51.774;7.220;2022-09-25T04:37:32;12.00;99.90
23411;DHT22;11878;51.774;7.220;2022-09-25T04:40:35;12.00;99.90
23411;DHT22;11878;51.774;7.220;2022-09-25T04:43:37;12.00;99.90
23411;DHT22;11878;51.774;7.220;2022-09-25T04:46:39;12.00;99.90
23411;DHT22;11878;51.774;7.220;2022-09-25T04:49:40;11.90;99.90
23411;DHT22;11878;51.774;7.220;2022-09-25T04:52:42;11.90;99.90
23411;DHT22;11878;51.774;7.220;2022-09-25T04:55:44;11.90;99.90
23411;DHT22;11878;51.774;7.220;2022-09-25T04:58:48;11.80;99.90
23411;DHT22;11878;51.774;7.220;2022-09-25T05:01:50;11.90;99.90
23411;DHT22;11878;51.774;7.220;2022-09-25T05:04:52;11.80;99.90
23411;DHT22;11878;51.774;7.220;2022-09-25T05:07:56;11.80;99.90
23411;DHT22;11878;51.774;7.220;2022-09-25T05:10:58;11.80;99.90
23411;DHT22;11878;51.774;7.220;2022-09-25T05:13:59;11.80;99.90
23411;DHT22;11878;51.774;7.220;2022-09-25T05:17:01;11.70;99.90
23411;DHT22;11878;51.774;7.220;2022-09-25T05:20:03;11.70;99.90
23411;DHT22;11878;51.774;7.220;2022-09-25T05:23:05;11.70;99.90
23411;DHT22;11878;51.774;7.220;2022-09-25T05:26:08;11.70;99.90
23411;DHT22;11878;51.774;7.220;2022-09-25T05:29:11;11.50;99.90
23411;DHT22;11878;51.774;7.220;2022-09-25T05:32:13;11.50;99.90
23411;DHT22;11878;51.774;7.220;2022-09-25T05:35:20;11.40;99.90
23411;DHT22;11878;51.774;7.220;2022-09-25T05:38:22;11.30;99.90
23411;DHT22;11878;51.774;7.220;2022-09-25T05:41:24;11.30;99.90
23411;DHT22;11878;51.774;7.220;2022-09-25T05:44:27;11.30;99.90
23411;DHT22;11878;51.774;7.220;2022-09-25T05:47:28;11.20;99.90
23411;DHT22;11878;51.774;7.220;2022-09-25T05:50:31;11.20;99.90
23411;DHT22;11878;51.774;7.220;2022-09-25T05:53:33;11.10;99.90
23411;DHT22;11878;51.774;7.220;2022-09-25T05:56:34;11.20;99.90
23411;DHT22;11878;51.774;7.220;2022-09-25T05:59:36;11.10;99.90
23411;DHT22;11878;51.774;7.220;2022-09-25T06:02:38;11.20;99.90
23411;DHT22;11878;51.774;7.220;2022-09-25T06:05:40;11.20;99.90
23411;DHT22;11878;51.774;7.220;2022-09-25T06:08:41;11.20;99.90
23411;DHT22;11878;51.774;7.220;2022-09-25T06:11:43;11.20;99.90
23411;DHT22;11878;51.774;7.220;2022-09-25T06:14:47;11.20;99.90
23411;DHT22;11878;51.774;7.220;2022-09-25T06:17:49;11.10;99.90
23411;DHT22;11878;51.774;7.220;2022-09-25T06:20:58;11.20;99.90
23411;DHT22;11878;51.774;7.220;2022-09-25T06:24:00;11.30;99.90
23411;DHT22;11878;51.774;7.220;2022-09-25T06:27:02;11.30;99.90
23411;DHT22;11878;51.774;7.220;2022-09-25T06:30:04;11.30;99.90
23411;DHT22;11878;51.774;7.220;2022-09-25T06:33:09;11.40;99.90
23411;DHT22;11878;51.774;7.220;2022-09-25T06:36:13;11.40;99.90
23411;DHT22;11878;51.774;7.220;2022-09-25T06:39:15;11.50;99.90
23411;DHT22;11878;51.774;7.220;2022-09-25T06:42:16;11.50;99.90
23411;DHT22;11878;51.774;7.220;2022-09-25T06:45:18;11.50;99.90
23411;DHT22;11878;51.774;7.220;2022-09-25T06:48:20;11.50;99.90
23411;DHT22;11878;51.774;7.220;2022-09-25T06:51:23;11.50;99.90
23411;DHT22;11878;51.774;7.220;2022-09-25T06:54:29;11.60;99.90
23411;DHT22;11878;51.774;7.220;2022-09-25T06:57:31;11.60;99.90
23411;DHT22;11878;51.774;7.220;2022-09-25T07:00:36;11.50;99.90
23411;DHT22;11878;51.774;7.220;2022-09-25T07:03:38;11.70;99.90
23411;DHT22;11878;51.774;7.220;2022-09-25T07:06:46;11.70;99.90
23411;DHT22;11878;51.774;7.220;2022-09-25T07:09:48;11.70;99.90
23411;DHT22;11878;51.774;7.220;2022-09-25T07:12:50;11.80;99.90
23411;DHT22;11878;51.774;7.220;2022-09-25T07:15:52;11.80;99.90
23411;DHT22;11878;51.774;7.220;2022-09-25T07:18:56;11.90;99.90
23411;DHT22;11878;51.774;7.220;2022-09-25T07:21:58;12.10;99.90
23411;DHT22;11878;51.774;7.220;2022-09-25T07:25:00;12.10;99.90
23411;DHT22;11878;51.774;7.220;2022-09-25T07:28:02;12.10;99.90
23411;DHT22;11878;51.774;7.220;2022-09-25T07:31:14;12.20;99.90
23411;DHT22;11878;51.774;7.220;2022-09-25T07:34:16;12.20;99.90
23411;DHT22;11878;51.774;7.220;2022-09-25T07:37:18;12.30;99.90
23411;DHT22;11878;51.774;7.220;2022-09-25T07:40:20;12.30;99.90
23411;DHT22;11878;51.774;7.220;2022-09-25T07:43:21;12.20;99.90
23411;DHT22;11878;51.774;7.220;2022-09-25T07:46:26;12.40;99.90
23411;DHT22;11878;51.774;7.220;2022-09-25T07:49:29;12.50;99.90
23411;DHT22;11878;51.774;7.220;2022-09-25T07:52:31;12.50;99.90
23411;DHT22;11878;51.774;7.220;2022-09-25T07:55:33;12.50;99.90
23411;DHT22;11878;51.774;7.220;2022-09-25T07:58:35;12.60;99.90
23411;DHT22;11878;51.774;7.220;2022-09-25T08:01:37;12.80;99.90
23411;DHT22;11878;51.774;7.220;2022-09-25T08:04:47;12.90;99.90
23411;DHT22;11878;51.774;7.220;2022-09-25T08:07:48;12.90;99.90
23411;DHT22;11878;51.774;7.220;2022-09-25T08:10:50;13.00;99.90
23411;DHT22;11878;51.774;7.220;2022-09-25T08:13:52;13.10;99.90
23411;DHT22;11878;51.774;7.220;2022-09-25T08:16:54;13.10;99.90
23411;DHT22;11878;51.774;7.220;2022-09-25T08:19:56;13.20;99.90
23411;DHT22;11878;51.774;7.220;2022-09-25T08:22:58;13.40;99.90
23411;DHT22;11878;51.774;7.220;2022-09-25T08:26:00;13.30;99.90
23411;DHT22;11878;51.774;7.220;2022-09-25T08:29:03;13.40;99.90
23411;DHT22;11878;51.774;7.220;2022-09-25T08:32:05;13.50;99.90
23411;DHT22;11878;51.774;7.220;2022-09-25T08:35:07;13.60;99.90
23411;DHT22;11878;51.774;7.220;2022-09-25T08:38:09;13.60;99.90
23411;DHT22;11878;51.774;7.220;2022-09-25T08:41:28;13.70;99.90
23411;DHT22;11878;51.774;7.220;2022-09-25T08:44:41;13.80;99.90
23411;DHT22;11878;51.774;7.220;2022-09-25T08:48:06;13.90;99.90
23411;DHT22;11878;51.774;7.220;2022-09-25T08:51:34;14.20;99.90
23411;DHT22;11878;51.774;7.220;2022-09-25T08:54:38;14.10;99.90
23411;DHT22;11878;51.774;7.220;2022-09-25T08:57:46;14.20;99.90
23411;DHT22;11878;51.774;7.220;2022-09-25T09:00:48;14.10;99.90
23411;DHT22;11878;51.774;7.220;2022-09-25T09:04:01;14.50;99.90
23411;DHT22;11878;51.774;7.220;2022-09-25T09:07:12;14.60;99.90
23411;DHT22;11878;51.774;7.220;2022-09-25T09:10:39;14.90;99.90
23411;DHT22;11878;51.774;7.220;2022-09-25T09:13:47;14.90;99.90
23411;DHT22;11878;51.774;7.220;2022-09-25T09:17:04;14.90;99.90
23411;DHT22;11878;51.774;7.220;2022-09-25T09:20:17;15.40;99.90
23411;DHT22;11878;51.774;7.220;2022-09-25T09:23:21;15.50;99.90
23411;DHT22;11878;51.774;7.220;2022-09-25T09:26:39;15.60;99.90
23411;DHT22;11878;51.774;7.220;2022-09-25T09:30:01;15.80;99.90
23411;DHT22;11878;51.774;7.220;2022-09-25T09:43:43;16.80;99.90
23411;DHT22;11878;51.774;7.220;2022-09-25T09:46:59;16.60;99.90
23411;DHT22;11878;51.774;7.220;2022-09-25T09:56:30;15.30;99.90
23411;DHT22;11878;51.774;7.220;2022-09-25T09:59:57;15.60;99.90
23411;DHT22;11878;51.774;7.220;2022-09-25T10:03:22;16.50;99.90
23411;DHT22;11878;51.774;7.220;2022-09-25T10:06:29;17.10;99.90
23411;DHT22;11878;51.774;7.220;2022-09-25T10:09:31;17.50;99.90
23411;DHT22;11878;51.774;7.220;2022-09-25T10:12:35;17.80;99.90
23411;DHT22;11878;51.774;7.220;2022-09-25T10:15:41;17.70;99.90
23411;DHT22;11878;51.774;7.220;2022-09-25T10:18:51;17.10;99.90
23411;DHT22;11878;51.774;7.220;2022-09-25T10:22:02;16.40;99.90
23411;DHT22;11878;51.774;7.220;2022-09-25T10:25:05;15.80;99.90
23411;DHT22;11878;51.774;7.220;2022-09-25T10:28:26;15.70;99.90
23411;DHT22;11878;51.774;7.220;2022-09-25T10:31:38;16.60;99.90
23411;DHT22;11878;51.774;7.220;2022-09-25T10:34:49;16.90;99.90
23411;DHT22;11878;51.774;7.220;2022-09-25T10:37:55;17.40;99.90
23411;DHT22;11878;51.774;7.220;2022-09-25T10:41:17;16.70;99.90
23411;DHT22;11878;51.774;7.220;2022-09-25T10:44:27;17.30;99.90
23411;DHT22;11878;51.774;7.220;2022-09-25T10:47:30;17.60;99.90
23411;DHT22;11878;51.774;7.220;2022-09-25T10:51:10;17.50;99.90
23411;DHT22;11878;51.774;7.220;2022-09-25T10:54:14;17.40;99.90
23411;DHT22;11878;51.774;7.220;2022-09-25T10:57:30;17.00;99.90
23411;DHT22;11878;51.774;7.220;2022-09-25T11:03:54;16.00;99.90
23411;DHT22;11878;51.774;7.220;2022-09-25T11:06:59;16.00;99.90
23411;DHT22;11878;51.774;7.220;2022-09-25T11:10:02;16.10;99.90
23411;DHT22;11878;51.774;7.220;2022-09-25T11:13:08;16.20;99.90
23411;DHT22;11878;51.774;7.220;2022-09-25T11:16:16;16.10;99.90
23411;DHT22;11878;51.774;7.220;2022-09-25T11:19:28;16.00;99.90
23411;DHT22;11878;51.774;7.220;2022-09-25T11:22:34;16.00;99.20
23411;DHT22;11878;51.774;7.220;2022-09-25T11:28:58;16.00;99.20
23411;DHT22;11878;51.774;7.220;2022-09-25T11:35:52;15.90;99.90
23411;DHT22;11878;51.774;7.220;2022-09-25T11:39:01;16.00;99.90
23411;DHT22;11878;51.774;7.220;2022-09-25T11:42:27;16.00;99.90
23411;DHT22;11878;51.774;7.220;2022-09-25T11:45:50;16.20;99.90
23411;DHT22;11878;51.774;7.220;2022-09-25T11:49:04;16.20;99.90
23411;DHT22;11878;51.774;7.220;2022-09-25T11:52:20;16.20;99.90
23411;DHT22;11878;51.774;7.220;2022-09-25T12:02:17;15.90;99.90
23411;DHT22;11878;51.774;7.220;2022-09-25T12:14:49;15.80;99.90
23411;DHT22;11878;51.774;7.220;2022-09-25T12:21:50;15.90;99.90
23411;DHT22;11878;51.774;7.220;2022-09-25T12:28:53;16.30;97.70
23411;DHT22;11878;51.774;7.220;2022-09-25T12:38:41;16.40;96.20
23411;DHT22;11878;51.774;7.220;2022-09-25T12:41:49;16.40;93.90
23411;DHT22;11878;51.774;7.220;2022-09-25T12:44:56;16.30;97.30
23411;DHT22;11878;51.774;7.220;2022-09-25T12:48:20;16.30;97.30
23411;DHT22;11878;51.774;7.220;2022-09-25T12:51:29;16.40;97.40
23411;DHT22;11878;51.774;7.220;2022-09-25T12:55:01;16.30;98.80
23411;DHT22;11878;51.774;7.220;2022-09-25T13:05:22;16.20;92.90
23411;DHT22;11878;51.774;7.220;2022-09-25T13:11:59;16.20;95.30
23411;DHT22;11878;51.774;7.220;2022-09-25T13:14:59;16.40;95.50
23411;DHT22;11878;51.774;7.220;2022-09-25T13:18:03;16.40;94.50
23411;DHT22;11878;51.774;7.220;2022-09-25T13:21:31;16.30;95.90
23411;DHT22;11878;51.774;7.220;2022-09-25T13:24:43;16.20;95.30
23411;DHT22;11878;51.774;7.220;2022-09-25T13:27:46;16.10;94.00
23411;DHT22;11878;51.774;7.220;2022-09-25T13:31:10;16.10;94.50
23411;DHT22;11878;51.774;7.220;2022-09-25T13:34:15;16.10;96.70
23411;DHT22;11878;51.774;7.220;2022-09-25T13:37:24;16.00;98.20
23411;DHT22;11878;51.774;7.220;2022-09-25T13:40:27;15.90;98.70
23411;DHT22;11878;51.774;7.220;2022-09-25T13:43:44;15.80;99.80
23411;DHT22;11878;51.774;7.220;2022-09-25T13:50:26;15.80;98.70
23411;DHT22;11878;51.774;7.220;2022-09-25T13:56:51;16.20;99.90
23411;DHT22;11878;51.774;7.220;2022-09-25T14:00:01;16.40;99.90
23411;DHT22;11878;51.774;7.220;2022-09-25T14:03:05;16.20;97.60
23411;DHT22;11878;51.774;7.220;2022-09-25T14:06:30;16.20;99.90
23411;DHT22;11878;51.774;7.220;2022-09-25T14:09:43;16.20;97.70
23411;DHT22;11878;51.774;7.220;2022-09-25T14:12:47;16.30;95.60
23411;DHT22;11878;51.774;7.220;2022-09-25T14:15:50;16.40;94.30
23411;DHT22;11878;51.774;7.220;2022-09-25T14:18:57;16.30;95.00
23411;DHT22;11878;51.774;7.220;2022-09-25T14:22:02;16.60;95.00
23411;DHT22;11878;51.774;7.220;2022-09-25T14:25:25;16.80;97.40
23411;DHT22;11878;51.774;7.220;2022-09-25T14:28:29;16.90;95.80
23411;DHT22;11878;51.774;7.220;2022-09-25T14:34:46;16.40;95.30
23411;DHT22;11878;51.774;7.220;2022-09-25T14:37:54;16.30;96.00
23411;DHT22;11878;51.774;7.220;2022-09-25T14:41:12;16.10;97.60
23411;DHT22;11878;51.774;7.220;2022-09-25T14:44:48;16.00;95.90
23411;DHT22;11878;51.774;7.220;2022-09-25T14:47:56;16.90;95.80
23411;DHT22;11878;51.774;7.220;2022-09-25T14:51:06;18.90;84.10
23411;DHT22;11878;51.774;7.220;2022-09-25T14:54:18;18.30;87.70
23411;DHT22;11878;51.774;7.220;2022-09-25T14:57:26;17.60;85.90
23411;DHT22;11878;51.774;7.220;2022-09-25T15:00:28;17.30;92.70
23411;DHT22;11878;51.774;7.220;2022-09-25T15:03:31;17.00;95.80
23411;DHT22;11878;51.774;7.220;2022-09-25T15:06:37;16.80;95.90
23411;DHT22;11878;51.774;7.220;2022-09-25T15:09:46;16.50;94.60
23411;DHT22;11878;51.774;7.220;2022-09-25T15:12:48;16.80;96.90
23411;DHT22;11878;51.774;7.220;2022-09-25T15:15:55;17.00;94.60
23411;DHT22;11878;51.774;7.220;2022-09-25T15:19:25;16.80;95.80
23411;DHT22;11878;51.774;7.220;2022-09-25T15:22:34;16.60;94.90
23411;DHT22;11878;51.774;7.220;2022-09-25T15:25:42;16.60;94.40
23411;DHT22;11878;51.774;7.220;2022-09-25T15:28:46;16.50;95.70
23411;DHT22;11878;51.774;7.220;2022-09-25T15:31:49;16.50;96.50
23411;DHT22;11878;51.774;7.220;2022-09-25T15:35:13;16.60;96.20
23411;DHT22;11878;51.774;7.220;2022-09-25T15:38:18;16.60;99.90
23411;DHT22;11878;51.774;7.220;2022-09-25T15:41:21;16.60;98.50
23411;DHT22;11878;51.774;7.220;2022-09-25T15:44:25;16.40;96.20
23411;DHT22;11878;51.774;7.220;2022-09-25T15:50:41;16.30;97.60
23411;DHT22;11878;51.774;7.220;2022-09-25T15:53:50;16.60;98.00
23411;DHT22;11878;51.774;7.220;2022-09-25T15:56:52;16.50;97.00
23411;DHT22;11878;51.774;7.220;2022-09-25T15:59:56;16.40;97.50
23411;DHT22;11878;51.774;7.220;2022-09-25T16:03:25;16.20;94.90
23411;DHT22;11878;51.774;7.220;2022-09-25T16:06:48;16.20;93.80
23411;DHT22;11878;51.774;7.220;2022-09-25T16:09:54;16.10;95.00
23411;DHT22;11878;51.774;7.220;2022-09-25T16:12:56;16.20;95.40
23411;DHT22;11878;51.774;7.220;2022-09-25T16:15:57;16.00;95.80
23411;DHT22;11878;51.774;7.220;2022-09-25T16:22:34;15.90;97.30
23411;DHT22;11878;51.774;7.220;2022-09-25T16:25:42;15.70;99.90
23411;DHT22;11878;51.774;7.220;2022-09-25T16:29:33;15.60;97.00
23411;DHT22;11878;51.774;7.220;2022-09-25T16:32:15;15.60;97.70
23411;DHT22;11878;51.774;7.220;2022-09-25T16:35:33;15.60;98.60
23411;DHT22;11878;51.774;7.220;2022-09-25T16:42:30;15.30;99.90
23411;DHT22;11878;51.774;7.220;2022-09-25T16:45:58;15.10;99.90
23411;DHT22;11878;51.774;7.220;2022-09-25T16:49:01;15.10;99.90
23411;DHT22;11878;51.774;7.220;2022-09-25T16:52:05;15.00;99.90
23411;DHT22;11878;51.774;7.220;2022-09-25T16:55:23;15.00;99.90
23411;DHT22;11878;51.774;7.220;2022-09-25T16:58:25;14.90;99.90
23411;DHT22;11878;51.774;7.220;2022-09-25T17:01:27;14.90;99.90
23411;DHT22;11878;51.774;7.220;2022-09-25T17:04:30;14.70;99.90
23411;DHT22;11878;51.774;7.220;2022-09-25T17:07:33;14.60;99.90
23411;DHT22;11878;51.774;7.220;2022-09-25T17:10:34;14.60;99.90
23411;DHT22;11878;51.774;7.220;2022-09-25T17:13:37;14.60;99.90
23411;DHT22;11878;51.774;7.220;2022-09-25T17:16:39;14.40;99.90
23411;DHT22;11878;51.774;7.220;2022-09-25T17:19:40;14.40;99.90
23411;DHT22;11878;51.774;7.220;2022-09-25T17:22:42;14.30;99.90
23411;DHT22;11878;51.774;7.220;2022-09-25T17:25:50;14.30;99.90
23411;DHT22;11878;51.774;7.220;2022-09-25T17:28:53;14.10;99.90
23411;DHT22;11878;51.774;7.220;2022-09-25T17:31:55;14.10;99.90
23411;DHT22;11878;51.774;7.220;2022-09-25T17:34:57;14.20;99.90
23411;DHT22;11878;51.774;7.220;2022-09-25T17:38:00;14.10;99.90
23411;DHT22;11878;51.774;7.220;2022-09-25T17:41:20;14.00;99.90
23411;DHT22;11878;51.774;7.220;2022-09-25T17:44:22;13.80;99.90
23411;DHT22;11878;51.774;7.220;2022-09-25T17:47:24;13.70;99.90
23411;DHT22;11878;51.774;7.220;2022-09-25T17:50:26;13.60;99.90
23411;DHT22;11878;51.774;7.220;2022-09-25T17:53:32;13.50;99.90
23411;DHT22;11878;51.774;7.220;2022-09-25T17:56:34;13.40;99.90
23411;DHT22;11878;51.774;7.220;2022-09-25T17:59:36;13.80;99.90
23411;DHT22;11878;51.774;7.220;2022-09-25T18:02:38;13.30;99.90
23411;DHT22;11878;51.774;7.220;2022-09-25T18:05:43;13.20;99.90
23411;DHT22;11878;51.774;7.220;2022-09-25T18:08:46;13.30;99.90
23411;DHT22;11878;51.774;7.220;2022-09-25T18:11:48;13.30;99.90
23411;DHT22;11878;51.774;7.220;2022-09-25T18:14:50;13.30;99.90
23411;DHT22;11878;51.774;7.220;2022-09-25T18:17:52;13.20;99.90
23411;DHT22;11878;51.774;7.220;2022-09-25T18:20:54;13.20;99.90
23411;DHT22;11878;51.774;7.220;2022-09-25T18:24:14;13.10;99.90
23411;DHT22;11878;51.774;7.220;2022-09-25T18:27:16;13.00;99.90
23411;DHT22;11878;51.774;7.220;2022-09-25T18:30:20;12.90;99.90
23411;DHT22;11878;51.774;7.220;2022-09-25T18:33:25;13.00;99.90
23411;DHT22;11878;51.774;7.220;2022-09-25T18:36:27;12.90;99.90
23411;DHT22;11878;51.774;7.220;2022-09-25T18:39:29;12.90;99.90
23411;DHT22;11878;51.774;7.220;2022-09-25T18:42:31;13.10;99.90
23411;DHT22;11878;51.774;7.220;2022-09-25T18:45:32;13.00;99.90
23411;DHT22;11878;51.774;7.220;2022-09-25T18:48:34;12.90;99.90
23411;DHT22;11878;51.774;7.220;2022-09-25T18:51:37;12.80;99.90
23411;DHT22;11878;51.774;7.220;2022-09-25T18:54:40;12.70;99.90
23411;DHT22;11878;51.774;7.220;2022-09-25T18:57:42;12.80;99.90
23411;DHT22;11878;51.774;7.220;2022-09-25T19:00:44;12.60;99.90
23411;DHT22;11878;51.774;7.220;2022-09-25T19:03:48;12.60;99.90
23411;DHT22;11878;51.774;7.220;2022-09-25T19:06:52;12.60;99.90
23411;DHT22;11878;51.774;7.220;2022-09-25T19:09:54;12.60;99.90
23411;DHT22;11878;51.774;7.220;2022-09-25T19:12:57;12.50;99.90
23411;DHT22;11878;51.774;7.220;2022-09-25T19:15:58;12.40;99.90
23411;DHT22;11878;51.774;7.220;2022-09-25T19:19:01;12.40;99.90
23411;DHT22;11878;51.774;7.220;2022-09-25T19:22:04;12.30;99.90
23411;DHT22;11878;51.774;7.220;2022-09-25T19:25:06;12.30;99.90
23411;DHT22;11878;51.774;7.220;2022-09-25T19:28:07;12.40;99.90
23411;DHT22;11878;51.774;7.220;2022-09-25T19:31:14;12.30;99.90
23411;DHT22;11878;51.774;7.220;2022-09-25T19:34:16;12.20;99.90
23411;DHT22;11878;51.774;7.220;2022-09-25T19:37:18;12.10;99.90
23411;DHT22;11878;51.774;7.220;2022-09-25T19:40:20;12.20;99.90
23411;DHT22;11878;51.774;7.220;2022-09-25T19:43:37;12.20;99.90
23411;DHT22;11878;51.774;7.220;2022-09-25T19:46:41;12.30;99.90
23411;DHT22;11878;51.774;7.220;2022-09-25T19:49:43;12.20;99.90
23411;DHT22;11878;51.774;7.220;2022-09-25T19:52:44;12.10;99.90
23411;DHT22;11878;51.774;7.220;2022-09-25T19:55:53;12.10;99.90
23411;DHT22;11878;51.774;7.220;2022-09-25T19:58:55;11.90;99.90
23411;DHT22;11878;51.774;7.220;2022-09-25T20:01:57;11.80;99.90
23411;DHT22;11878;51.774;7.220;2022-09-25T20:04:59;11.70;99.90
23411;DHT22;11878;51.774;7.220;2022-09-25T20:08:00;11.70;99.90
23411;DHT22;11878;51.774;7.220;2022-09-25T20:11:14;11.80;99.90
23411;DHT22;11878;51.774;7.220;2022-09-25T20:14:16;11.70;99.90
23411;DHT22;11878;51.774;7.220;2022-09-25T20:17:25;11.60;99.90
23411;DHT22;11878;51.774;7.220;2022-09-25T20:20:27;11.50;99.90
23411;DHT22;11878;51.774;7.220;2022-09-25T20:23:30;11.40;99.90
23411;DHT22;11878;51.774;7.220;2022-09-25T20:26:31;11.30;99.90
23411;DHT22;11878;51.774;7.220;2022-09-25T20:29:33;11.30;99.90
23411;DHT22;11878;51.774;7.220;2022-09-25T20:32:35;11.30;99.90
23411;DHT22;11878;51.774;7.220;2022-09-25T20:35:37;11.30;99.90
23411;DHT22;11878;51.774;7.220;2022-09-25T20:38:39;11.40;99.90
23411;DHT22;11878;51.774;7.220;2022-09-25T20:41:40;11.30;99.90
23411;DHT22;11878;51.774;7.220;2022-09-25T20:44:43;11.30;99.90
23411;DHT22;11878;51.774;7.220;2022-09-25T20:47:44;11.20;99.90
23411;DHT22;11878;51.774;7.220;2022-09-25T20:50:50;11.10;99.90
23411;DHT22;11878;51.774;7.220;2022-09-25T20:53:55;11.10;99.90
23411;DHT22;11878;51.774;7.220;2022-09-25T20:56:56;11.00;99.90
23411;DHT22;11878;51.774;7.220;2022-09-25T20:59:58;10.90;99.90
23411;DHT22;11878;51.774;7.220;2022-09-25T21:03:02;10.90;99.90
23411;DHT22;11878;51.774;7.220;2022-09-25T21:06:07;11.10;99.90
23411;DHT22;11878;51.774;7.220;2022-09-25T21:09:24;11.20;99.90
23411;DHT22;11878;51.774;7.220;2022-09-25T21:12:27;11.20;99.90
23411;DHT22;11878;51.774;7.220;2022-09-25T21:15:29;11.00;99.90
23411;DHT22;11878;51.774;7.220;2022-09-25T21:18:32;11.00;99.90
23411;DHT22;11878;51.774;7.220;2022-09-25T21:21:36;11.00;99.90
23411;DHT22;11878;51.774;7.220;2022-09-25T21:24:38;11.10;99.90
23411;DHT22;11878;51.774;7.220;2022-09-25T21:27:40;10.90;99.90
23411;DHT22;11878;51.774;7.220;2022-09-25T21:30:41;10.90;99.90
23411;DHT22;11878;51.774;7.220;2022-09-25T21:33:44;10.80;99.90
23411;DHT22;11878;51.774;7.220;2022-09-25T21:36:46;10.80;99.90